Time;durP1;ratioP1;P1;durP2;ratioP2;P2;SDS_P1;SDS_P2;PMS_P1;PMS_P2;Temp;Humidity;BMP_temperature;BMP_pressure;BME280_temperature;BME280_humidity;BME280_pressure;Samples;Min_cycle;Max_cycle;Signal;HPM_P1;HPM_P2
2021/04/27 00:02:18;;;;;;;2.03;0.93;;;5.30;55.20;;;;;;5003207;28;20061;-70
2021/04/27 00:04:46;;;;;;;1.95;1.15;;;5.30;55.40;;;;;;5006765;28;20362;-69
2021/04/27 00:07:13;;;;;;;1.70;0.93;;;5.30;55.30;;;;;;5000976;28;20049;-69
2021/04/27 00:09:41;;;;;;;2.08;1.20;;;5.30;55.40;;;;;;5005521;28;20125;-69
2021/04/27 00:12:09;;;;;;;4.35;1.08;;;5.30;55.70;;;;;;5007781;28;20061;-69
2021/04/27 00:14:36;;;;;;;3.10;1.55;;;5.30;56.00;;;;;;5002776;28;20065;-69
2021/04/27 00:17:04;;;;;;;3.70;1.25;;;5.20;56.40;;;;;;5000924;28;20357;-69
2021/04/27 00:19:31;;;;;;;2.17;1.00;;;5.20;56.50;;;;;;5008176;28;20408;-69
2021/04/27 00:21:59;;;;;;;3.38;1.67;;;5.20;56.90;;;;;;5007674;28;20121;-69
2021/04/27 00:24:30;;;;;;;3.67;1.45;;;5.10;56.90;;;;;;5004518;28;20058;-69
2021/04/27 00:26:57;;;;;;;2.05;1.17;;;5.10;57.00;;;;;;5007933;28;20200;-69
2021/04/27 00:29:24;;;;;;;2.65;0.98;;;5.00;57.20;;;;;;5006839;28;20033;-69
2021/04/27 00:31:51;;;;;;;2.45;1.02;;;5.00;57.40;;;;;;5012192;28;20533;-69
2021/04/27 00:34:18;;;;;;;3.13;0.80;;;5.00;57.80;;;;;;5012212;28;20072;-69
2021/04/27 00:36:45;;;;;;;2.15;1.20;;;5.00;57.90;;;;;;5011360;28;20064;-70
2021/04/27 00:39:16;;;;;;;2.97;1.55;;;4.90;58.00;;;;;;5003716;28;20057;-70
2021/04/27 00:41:43;;;;;;;;;;;4.90;58.20;;;;;;5003910;28;20049;-69
2021/04/27 00:44:13;;;;;;;2.42;0.90;;;4.80;58.20;;;;;;5007143;28;19929;-69
2021/04/27 00:46:39;;;;;;;3.15;1.38;;;4.80;58.10;;;;;;5004049;28;20060;-70
2021/04/27 00:49:07;;;;;;;2.97;0.95;;;4.80;58.20;;;;;;5006533;28;20049;-69
2021/04/27 00:51:35;;;;;;;3.95;1.20;;;4.80;58.20;;;;;;5005227;28;20364;-69
2021/04/27 00:54:06;;;;;;;4.30;1.75;;;4.80;58.40;;;;;;5008065;28;20120;-69
2021/04/27 00:56:34;;;;;;;3.42;1.40;;;4.80;58.60;;;;;;5020845;28;20060;-68
2021/04/27 00:59:01;;;;;;;5.15;1.42;;;4.70;58.70;;;;;;5006877;28;20057;-69
2021/04/27 01:01:30;;;;;;;3.55;1.20;;;4.70;58.70;;;;;;4997271;28;20045;-69
2021/04/27 01:03:57;;;;;;;3.13;1.50;;;4.60;58.90;;;;;;5004319;28;20520;-69
2021/04/27 01:06:24;;;;;;;5.85;1.58;;;4.60;59.00;;;;;;5005647;28;20222;-69
2021/04/27 01:08:58;;;;;;;3.38;1.35;;;4.60;59.10;;;;;;5007229;28;20064;-70
2021/04/27 01:11:32;;;;;;;2.72;1.30;;;4.60;59.10;;;;;;5008432;28;20061;-69
2021/04/27 01:14:06;;;;;;;2.47;1.23;;;4.60;59.40;;;;;;5005580;28;20150;-69
2021/04/27 01:16:36;;;;;;;4.40;1.42;;;4.50;59.80;;;;;;5011006;28;20046;-69
2021/04/27 01:19:08;;;;;;;3.42;1.30;;;4.40;60.00;;;;;;5005026;28;20049;-69
2021/04/27 01:21:38;;;;;;;1.83;0.95;;;4.40;59.90;;;;;;5009876;28;20112;-69
2021/04/27 01:24:16;;;;;;;3.47;1.35;;;4.30;60.30;;;;;;5006536;28;20214;-69
2021/04/27 01:26:46;;;;;;;2.70;1.42;;;4.30;60.20;;;;;;5020635;28;20060;-69
2021/04/27 01:29:17;;;;;;;2.75;1.23;;;4.30;60.50;;;;;;5009546;28;20054;-70
2021/04/27 01:31:46;;;;;;;2.88;1.35;;;4.20;61.10;;;;;;5009067;28;20042;-68
2021/04/27 01:34:16;;;;;;;3.20;1.13;;;4.20;61.60;;;;;;5029160;28;20358;-70
2021/04/27 01:36:43;;;;;;;4.43;1.45;;;4.20;61.70;;;;;;5026998;28;20046;-70
2021/04/27 01:39:12;;;;;;;3.92;1.70;;;4.10;62.30;;;;;;5026061;28;20113;-68
2021/04/27 01:41:39;;;;;;;3.72;2.05;;;4.00;62.50;;;;;;5010104;28;20179;-69
2021/04/27 01:44:08;;;;;;;4.63;1.35;;;3.90;63.20;;;;;;5009761;28;20249;-69
2021/04/27 01:46:37;;;;;;;5.37;1.77;;;3.90;63.50;;;;;;5014817;28;20058;-69
2021/04/27 01:49:08;;;;;;;2.70;0.95;;;3.80;63.60;;;;;;5010242;28;20300;-69
2021/04/27 01:51:43;;;;;;;2.13;0.88;;;3.80;63.80;;;;;;5029768;28;20124;-69
2021/04/27 01:54:26;;;;;;;2.70;1.17;;;3.70;63.80;;;;;;5011488;28;20081;-69
2021/04/27 01:56:54;;;;;;;1.58;0.98;;;3.70;63.90;;;;;;5009276;28;20229;-69
2021/04/27 01:59:23;;;;;;;2.05;1.30;;;3.70;63.90;;;;;;5014182;28;20041;-69
2021/04/27 02:01:53;;;;;;;5.78;1.38;;;3.60;63.90;;;;;;5002974;28;20045;-69
2021/04/27 02:04:21;;;;;;;5.53;1.33;;;3.60;64.00;;;;;;5007281;28;20125;-69
2021/04/27 02:07:14;;;;;;;1.50;0.90;;;3.60;64.00;;;;;;5007797;28;20428;-68
2021/04/27 02:09:41;;;;;;;3.28;1.25;;;3.50;64.00;;;;;;5030317;28;20431;-68
2021/04/27 02:12:18;;;;;;;1.17;0.80;;;3.50;64.20;;;;;;5005314;28;20054;-69
2021/04/27 02:14:45;;;;;;;3.53;1.17;;;3.40;64.30;;;;;;5001487;28;20298;-69
2021/04/27 02:17:18;;;;;;;2.65;1.42;;;3.40;64.00;;;;;;5007959;28;20117;-69
2021/04/27 02:19:47;;;;;;;1.33;0.77;;;3.40;64.00;;;;;;5009967;28;20062;-69
2021/04/27 02:22:34;;;;;;;1.25;0.85;;;3.40;64.00;;;;;;5012525;28;20052;-68
2021/04/27 02:25:20;;;;;;;2.13;1.00;;;3.40;63.90;;;;;;5011121;28;20048;-69
2021/04/27 02:27:50;;;;;;;2.40;1.30;;;3.40;63.90;;;;;;5015750;28;20337;-68
2021/04/27 02:30:20;;;;;;;4.28;1.00;;;3.40;64.00;;;;;;5021786;28;20361;-70
2021/04/27 02:32:49;;;;;;;2.35;1.48;;;3.30;64.20;;;;;;5022131;28;20054;-69
2021/04/27 02:35:20;;;;;;;1.73;0.88;;;3.30;64.40;;;;;;5020176;28;20049;-69
2021/04/27 02:37:50;;;;;;;3.97;0.90;;;3.30;64.60;;;;;;5021028;28;20057;-69
2021/04/27 02:40:32;;;;;;;3.38;1.25;;;3.20;64.80;;;;;;5020942;28;20049;-69
2021/04/27 02:43:00;;;;;;;3.55;1.67;;;3.20;65.40;;;;;;5022010;28;20414;-69
2021/04/27 02:45:43;;;;;;;2.30;1.45;;;3.20;65.80;;;;;;5017567;28;21290;-68
2021/04/27 02:48:25;;;;;;;4.90;1.88;;;3.10;66.10;;;;;;5013298;28;20060;-69
2021/04/27 02:50:58;;;;;;;2.25;1.13;;;3.00;66.50;;;;;;5012000;28;20073;-69
2021/04/27 02:53:35;;;;;;;4.95;1.80;;;2.90;66.80;;;;;;5010775;28;20092;-69
2021/04/27 02:56:02;;;;;;;3.08;1.38;;;2.90;67.10;;;;;;5011002;28;20258;-69
2021/04/27 02:58:31;;;;;;;2.10;1.30;;;2.90;67.00;;;;;;5012345;28;20062;-69
2021/04/27 03:01:08;;;;;;;1.75;1.20;;;2.90;67.00;;;;;;5003114;28;23527;-69
2021/04/27 03:03:35;;;;;;;2.40;1.23;;;2.90;66.70;;;;;;5005389;28;20083;-68
2021/04/27 03:06:08;;;;;;;2.28;1.02;;;2.80;66.70;;;;;;5011382;28;20217;-69
2021/04/27 03:08:40;;;;;;;1.90;1.20;;;2.80;66.90;;;;;;5010906;28;20252;-69
2021/04/27 03:11:08;;;;;;;3.65;1.30;;;2.70;67.10;;;;;;5007654;28;20057;-68
2021/04/27 03:13:36;;;;;;;3.97;1.45;;;2.80;66.90;;;;;;5008091;28;20077;-70
2021/04/27 03:16:05;;;;;;;3.05;1.35;;;2.70;66.90;;;;;;5003937;28;22309;-69
2021/04/27 03:18:32;;;;;;;2.30;1.15;;;2.80;67.00;;;;;;5004323;28;20061;-69
2021/04/27 03:21:04;;;;;;;1.75;0.85;;;2.70;66.70;;;;;;5001989;28;20292;-69
2021/04/27 03:23:31;;;;;;;2.63;1.37;;;2.70;66.80;;;;;;5004838;28;20380;-69
2021/04/27 03:25:59;;;;;;;4.03;1.30;;;2.70;66.90;;;;;;5003016;28;20889;-69
2021/04/27 03:28:37;;;;;;;2.90;1.55;;;2.70;66.70;;;;;;5003993;28;20052;-69
2021/04/27 03:31:07;;;;;;;3.47;1.50;;;2.70;66.50;;;;;;5003977;28;20042;-69
2021/04/27 03:33:34;;;;;;;2.80;1.58;;;2.70;66.60;;;;;;5003462;28;20057;-69
2021/04/27 03:36:03;;;;;;;2.63;1.30;;;2.70;66.50;;;;;;5004192;28;20067;-69
2021/04/27 03:38:31;;;;;;;2.42;1.33;;;2.70;66.40;;;;;;5018949;28;20046;-68
2021/04/27 03:40:58;;;;;;;2.47;0.98;;;2.60;66.80;;;;;;5001160;28;20053;-68
2021/04/27 03:43:30;;;;;;;3.58;1.33;;;2.60;67.20;;;;;;5000498;28;20256;-70
2021/04/27 03:45:57;;;;;;;2.88;1.30;;;2.50;67.60;;;;;;5003293;28;20049;-69
2021/04/27 03:48:25;;;;;;;2.85;1.30;;;2.40;67.70;;;;;;5003528;28;20409;-69
2021/04/27 03:50:57;;;;;;;5.60;1.45;;;2.40;68.10;;;;;;5001142;28;20054;-69
2021/04/27 03:53:42;;;;;;;3.42;1.70;;;2.40;68.10;;;;;;5000800;28;20076;-68
2021/04/27 03:56:18;;;;;;;4.82;1.10;;;2.30;68.10;;;;;;5002569;28;20053;-68
2021/04/27 03:58:45;;;;;;;5.30;1.42;;;2.40;68.00;;;;;;5002433;28;20150;-69
2021/04/27 04:01:12;;;;;;;3.15;1.30;;;2.30;68.30;;;;;;4999071;28;20053;-69
2021/04/27 04:03:41;;;;;;;3.17;1.38;;;2.30;68.40;;;;;;4999588;28;20334;-69
2021/04/27 04:06:10;;;;;;;4.97;1.88;;;2.30;68.50;;;;;;5006038;28;20173;-69
2021/04/27 04:08:55;;;;;;;3.90;1.02;;;2.30;68.30;;;;;;5002152;28;20107;-69
2021/04/27 04:11:26;;;;;;;4.80;0.93;;;2.20;68.30;;;;;;5004598;28;20121;-69
2021/04/27 04:13:53;;;;;;;11.63;2.40;;;2.20;68.50;;;;;;5011935;28;20061;-68
2021/04/27 04:16:20;;;;;;;1.73;0.85;;;2.20;68.20;;;;;;5023934;28;20113;-69
2021/04/27 04:18:50;;;;;;;2.22;1.08;;;2.20;68.30;;;;;;5009057;28;20046;-70
2021/04/27 04:21:18;;;;;;;2.65;1.10;;;2.20;68.20;;;;;;5009023;28;20096;-69
2021/04/27 04:23:51;;;;;;;3.40;1.35;;;2.20;68.50;;;;;;5006577;28;20125;-68
2021/04/27 04:26:19;;;;;;;5.30;1.40;;;2.20;68.50;;;;;;5007025;28;20143;-69
2021/04/27 04:29:08;;;;;;;7.25;2.13;;;2.20;68.70;;;;;;5004487;28;20076;-68
2021/04/27 04:31:37;;;;;;;3.42;1.30;;;2.20;68.90;;;;;;5025420;28;20049;-68
2021/04/27 04:34:38;;;;;;;3.90;0.95;;;2.10;69.40;;;;;;4996366;28;20353;-68
2021/04/27 04:37:23;;;;;;;8.35;1.60;;;2.00;69.90;;;;;;5006539;28;20054;-69
2021/04/27 04:40:15;;;;;;;2.60;1.40;;;2.00;70.10;;;;;;4985902;28;20152;-68
2021/04/27 04:43:00;;;;;;;2.33;1.23;;;2.00;70.40;;;;;;5008145;28;20053;-70
2021/04/27 04:45:52;;;;;;;3.15;1.58;;;1.90;70.60;;;;;;5007270;28;20081;-69
2021/04/27 04:48:37;;;;;;;6.38;1.80;;;1.90;70.70;;;;;;5004427;28;20057;-69
2021/04/27 04:51:18;;;;;;;4.75;1.80;;;1.90;70.80;;;;;;5005890;28;20053;-68
2021/04/27 04:54:08;;;;;;;5.20;1.70;;;1.90;71.10;;;;;;5010875;28;20306;-69
2021/04/27 04:56:35;;;;;;;3.47;1.42;;;1.90;71.10;;;;;;5003348;28;20060;-67
2021/04/27 04:59:05;;;;;;;6.43;1.40;;;1.90;71.20;;;;;;5009095;28;20149;-69
2021/04/27 05:01:32;;;;;;;;;;;2.00;71.00;;;;;;5005124;28;20345;-70
2021/04/27 05:04:20;;;;;;;3.83;1.52;;;2.10;70.80;;;;;;5006444;28;20181;-69
2021/04/27 05:07:27;;;;;;;3.42;1.58;;;2.20;70.80;;;;;;5030463;28;20242;-68
2021/04/27 05:10:14;;;;;;;3.22;1.30;;;2.20;70.70;;;;;;5026166;28;20060;-68
2021/04/27 05:13:02;;;;;;;5.20;1.65;;;2.30;70.50;;;;;;5018664;28;20052;-69
2021/04/27 05:15:32;;;;;;;4.70;1.63;;;2.40;70.30;;;;;;5008185;28;20069;-69
2021/04/27 05:18:04;;;;;;;8.77;2.03;;;2.50;70.00;;;;;;5009032;28;20049;-69
2021/04/27 05:20:31;;;;;;;5.07;1.92;;;2.60;69.70;;;;;;5004204;28;21464;-68
2021/04/27 05:22:59;;;;;;;5.85;2.22;;;2.60;69.60;;;;;;5005977;28;20058;-69
2021/04/27 05:25:36;;;;;;;5.55;2.53;;;2.80;69.10;;;;;;5008241;28;20241;-69
2021/04/27 05:28:10;;;;;;;5.75;2.67;;;2.90;68.90;;;;;;5011716;28;20113;-68
2021/04/27 05:30:37;;;;;;;8.20;2.17;;;3.00;68.30;;;;;;5003948;28;20076;-69
2021/04/27 05:33:04;;;;;;;4.68;1.48;;;3.10;67.70;;;;;;5009722;28;20056;-70
2021/04/27 05:35:32;;;;;;;2.83;1.42;;;3.20;67.20;;;;;;5005254;28;20072;-68
2021/04/27 05:37:59;;;;;;;2.15;1.25;;;3.40;65.90;;;;;;5008006;28;20052;-68
2021/04/27 05:40:27;;;;;;;2.10;0.98;;;3.60;64.60;;;;;;5002407;28;21431;-69
2021/04/27 05:42:53;;;;;;;1.75;0.75;;;3.70;62.90;;;;;;5005783;28;20056;-69
2021/04/27 05:45:20;;;;;;;4.00;1.35;;;3.90;61.50;;;;;;5001659;28;20054;-68
2021/04/27 05:47:47;;;;;;;2.35;0.90;;;4.00;60.60;;;;;;5003969;28;20103;-69
2021/04/27 05:50:14;;;;;;;4.70;1.40;;;4.10;59.70;;;;;;5005727;28;20061;-69
2021/04/27 05:52:41;;;;;;;3.10;1.00;;;4.20;59.50;;;;;;5006778;28;20429;-69
2021/04/27 05:55:10;;;;;;;6.15;1.55;;;4.30;59.00;;;;;;5004779;28;20337;-68
2021/04/27 05:57:37;;;;;;;2.75;1.55;;;4.40;58.40;;;;;;5003230;28;20323;-70
2021/04/27 06:00:07;;;;;;;4.63;1.17;;;4.60;57.60;;;;;;5004863;28;20128;-69
2021/04/27 06:02:40;;;;;;;2.78;1.00;;;4.70;56.70;;;;;;5004667;28;20062;-68
2021/04/27 06:05:07;;;;;;;2.83;0.98;;;4.80;55.70;;;;;;5005436;28;20371;-69
2021/04/27 06:07:34;;;;;;;4.10;0.98;;;4.90;55.00;;;;;;5005183;28;20116;-69
2021/04/27 06:10:02;;;;;;;2.20;0.98;;;5.00;55.00;;;;;;5005606;28;20129;-69
2021/04/27 06:12:30;;;;;;;1.60;0.93;;;5.20;54.40;;;;;;5007473;28;20061;-69
2021/04/27 06:14:57;;;;;;;1.73;0.88;;;5.20;53.50;;;;;;5009333;28;20136;-69
2021/04/27 06:17:24;;;;;;;2.05;1.10;;;5.40;52.00;;;;;;5006960;28;20089;-69
2021/04/27 06:19:50;;;;;;;2.28;0.95;;;5.50;51.60;;;;;;5009462;28;20050;-69
2021/04/27 06:22:17;;;;;;;1.85;0.82;;;5.70;50.90;;;;;;5004756;28;20050;-68
2021/04/27 06:24:44;;;;;;;2.10;0.98;;;5.80;50.90;;;;;;5004726;28;20429;-70
2021/04/27 06:27:12;;;;;;;2.05;1.10;;;5.90;50.90;;;;;;4986368;28;20054;-69
2021/04/27 06:29:39;;;;;;;1.13;0.70;;;6.00;50.70;;;;;;4993735;28;20361;-69
2021/04/27 06:32:07;;;;;;;3.17;1.08;;;6.10;50.30;;;;;;4989233;28;20056;-69
2021/04/27 06:34:36;;;;;;;3.58;0.98;;;6.20;50.60;;;;;;4999466;28;20061;-69
2021/04/27 06:37:06;;;;;;;3.28;1.20;;;6.30;50.40;;;;;;4985838;28;20038;-69
2021/04/27 06:39:33;;;;;;;6.55;1.27;;;6.40;50.10;;;;;;4987783;28;20428;-69
2021/04/27 06:42:00;;;;;;;2.63;1.00;;;6.40;49.70;;;;;;4988322;28;20055;-68
2021/04/27 06:44:29;;;;;;;2.45;1.52;;;6.60;49.50;;;;;;4987170;28;20054;-68
2021/04/27 06:46:57;;;;;;;2.35;0.95;;;6.60;49.50;;;;;;4988623;28;20058;-69
2021/04/27 06:49:23;;;;;;;1.90;0.77;;;6.70;48.30;;;;;;4992856;28;20054;-69
2021/04/27 06:51:50;;;;;;;2.25;0.85;;;6.80;48.00;;;;;;4987835;28;20050;-69
2021/04/27 06:54:17;;;;;;;3.95;0.73;;;6.90;46.70;;;;;;4987472;28;20068;-69
2021/04/27 06:56:44;;;;;;;1.27;0.55;;;7.00;46.20;;;;;;4989849;28;20338;-70
2021/04/27 06:59:12;;;;;;;2.15;0.75;;;7.10;46.90;;;;;;4988873;28;20057;-69
2021/04/27 07:01:39;;;;;;;3.83;0.80;;;7.20;45.70;;;;;;4980449;28;20054;-69
2021/04/27 07:04:07;;;;;;;5.60;1.55;;;7.30;46.40;;;;;;4982821;28;20262;-69
2021/04/27 07:06:33;;;;;;;1.40;0.80;;;7.40;46.50;;;;;;4986681;28;20046;-69
2021/04/27 07:09:00;;;;;;;6.00;0.88;;;7.60;45.50;;;;;;4992471;28;20057;-71
2021/04/27 07:11:30;;;;;;;4.93;1.27;;;7.70;45.20;;;;;;4987463;28;20050;-69
2021/04/27 07:13:57;;;;;;;1.83;0.57;;;7.80;45.10;;;;;;4986433;28;20222;-68
2021/04/27 07:16:24;;;;;;;4.18;2.70;;;7.90;44.80;;;;;;4997252;28;20061;-68
2021/04/27 07:18:51;;;;;;;2.13;0.95;;;8.10;43.80;;;;;;4992114;28;20372;-70
2021/04/27 07:21:20;;;;;;;4.60;0.80;;;8.20;43.40;;;;;;4985068;28;20073;-69
2021/04/27 07:23:47;;;;;;;1.63;0.70;;;8.40;42.50;;;;;;4985478;28;20109;-69
2021/04/27 07:26:14;;;;;;;1.70;0.90;;;8.40;42.10;;;;;;4986254;28;20080;-70
2021/04/27 07:28:40;;;;;;;2.17;1.30;;;8.50;42.10;;;;;;4989530;28;20326;-69
2021/04/27 07:31:07;;;;;;;2.05;0.80;;;8.70;41.00;;;;;;4987663;28;20097;-69
2021/04/27 07:33:34;;;;;;;2.38;0.80;;;8.70;41.20;;;;;;4991210;28;20050;-69
2021/04/27 07:36:02;;;;;;;4.05;1.35;;;8.90;41.40;;;;;;5003491;28;20400;-68
2021/04/27 07:38:34;;;;;;;5.07;0.93;;;9.00;40.10;;;;;;5005431;28;20054;-69
2021/04/27 07:41:03;;;;;;;1.53;0.90;;;9.10;37.50;;;;;;5002705;28;20077;-69
2021/04/27 07:43:35;;;;;;;2.58;0.90;;;9.30;38.20;;;;;;5003917;28;20678;-69
2021/04/27 07:46:07;;;;;;;3.30;1.25;;;9.40;38.80;;;;;;5003473;28;20100;-69
2021/04/27 07:48:33;;;;;;;2.90;1.40;;;9.40;38.90;;;;;;5005472;28;20054;-69
2021/04/27 07:51:00;;;;;;;2.47;1.00;;;9.60;38.30;;;;;;5007464;28;20085;-69
2021/04/27 07:53:27;;;;;;;2.75;0.82;;;9.70;38.90;;;;;;5005844;28;20054;-68
2021/04/27 07:55:55;;;;;;;2.33;0.98;;;9.70;38.30;;;;;;5007943;28;20046;-69
2021/04/27 07:58:23;;;;;;;3.58;1.30;;;9.80;38.00;;;;;;5022429;28;20057;-68
2021/04/27 08:00:50;;;;;;;2.90;1.05;;;9.90;38.30;;;;;;5011587;28;20341;-68
2021/04/27 08:03:17;;;;;;;9.77;1.30;;;10.10;37.40;;;;;;5015029;28;20053;-68
2021/04/27 08:05:44;;;;;;;2.42;0.90;;;10.10;37.50;;;;;;5015254;28;20361;-69
2021/04/27 08:08:11;;;;;;;3.63;1.30;;;10.20;35.40;;;;;;5012318;28;20045;-69
2021/04/27 08:10:41;;;;;;;6.32;1.20;;;10.20;34.90;;;;;;5013154;28;20218;-68
2021/04/27 08:13:09;;;;;;;4.10;1.08;;;10.30;35.60;;;;;;5014873;28;20321;-69
2021/04/27 08:15:36;;;;;;;2.25;0.82;;;10.40;36.20;;;;;;5016566;28;20228;-69
2021/04/27 08:18:05;;;;;;;2.15;1.20;;;10.40;35.30;;;;;;5015320;28;20122;-69
2021/04/27 08:20:33;;;;;;;2.70;0.90;;;10.60;34.60;;;;;;5011497;28;20053;-68
2021/04/27 08:23:07;;;;;;;2.67;1.08;;;10.70;33.90;;;;;;5012894;28;20065;-69
2021/04/27 08:25:34;;;;;;;2.88;1.40;;;10.80;34.50;;;;;;5014403;28;20121;-68
2021/04/27 08:28:03;;;;;;;4.38;1.13;;;11.00;34.80;;;;;;5004078;28;20046;-69
2021/04/27 08:30:33;;;;;;;5.07;1.85;;;11.10;34.20;;;;;;5006561;28;20100;-69
2021/04/27 08:33:00;;;;;;;3.33;1.60;;;11.10;32.80;;;;;;5009585;28;20131;-69
2021/04/27 08:35:32;;;;;;;3.70;1.17;;;11.20;34.00;;;;;;4989606;28;20106;-68
2021/04/27 08:38:00;;;;;;;2.47;0.80;;;11.40;34.20;;;;;;4987738;28;20114;-68
2021/04/27 08:40:29;;;;;;;3.70;1.07;;;11.60;33.80;;;;;;4987385;28;20058;-69
2021/04/27 08:42:56;;;;;;;2.60;1.02;;;11.70;32.70;;;;;;4990550;28;20062;-68
2021/04/27 08:45:23;;;;;;;3.08;1.35;;;11.70;32.10;;;;;;4994414;28;20065;-68
2021/04/27 08:47:51;;;;;;;3.42;1.10;;;11.50;32.10;;;;;;4987923;28;20054;-69
2021/04/27 08:50:19;;;;;;;4.75;1.42;;;11.50;32.30;;;;;;4988230;28;20341;-69
2021/04/27 08:52:47;;;;;;;3.65;1.20;;;11.50;32.20;;;;;;5002249;28;20081;-69
2021/04/27 08:55:15;;;;;;;3.88;1.60;;;11.50;32.70;;;;;;5005659;28;21618;-69
2021/04/27 08:57:42;;;;;;;3.75;1.35;;;11.70;32.60;;;;;;5001187;28;20826;-68
2021/04/27 09:00:12;;;;;;;2.17;0.93;;;11.80;32.40;;;;;;5003483;28;20065;-68
2021/04/27 09:02:39;;;;;;;4.72;1.27;;;11.90;31.70;;;;;;5008335;28;20128;-68
2021/04/27 09:05:19;;;;;;;1.50;1.02;;;11.90;31.80;;;;;;5009813;28;20828;-69
2021/04/27 09:07:47;;;;;;;4.30;1.40;;;12.00;31.80;;;;;;5014338;28;20060;-69
2021/04/27 09:10:16;;;;;;;3.00;1.15;;;12.20;31.40;;;;;;5008744;28;20065;-68
2021/04/27 09:12:51;;;;;;;3.15;1.20;;;12.40;31.80;;;;;;5012920;28;20072;-69
2021/04/27 09:15:28;;;;;;;7.50;1.58;;;12.50;30.90;;;;;;5006370;28;20056;-69
2021/04/27 09:17:55;;;;;;;4.40;1.30;;;12.50;30.50;;;;;;5006354;28;20241;-69
2021/04/27 09:20:23;;;;;;;3.15;1.20;;;12.50;30.90;;;;;;5005016;28;20364;-68
2021/04/27 09:22:50;;;;;;;3.25;1.40;;;12.60;30.40;;;;;;5009217;28;20270;-68
2021/04/27 09:25:23;;;;;;;3.42;1.25;;;12.70;30.40;;;;;;5005010;28;20046;-68
2021/04/27 09:27:53;;;;;;;4.78;1.42;;;12.90;30.50;;;;;;5006640;28;20276;-69
2021/04/27 09:30:23;;;;;;;3.53;1.65;;;12.90;30.30;;;;;;5008233;28;20037;-68
2021/04/27 09:32:55;;;;;;;4.78;1.92;;;12.80;29.40;;;;;;5008446;28;20053;-67
2021/04/27 09:35:30;;;;;;;2.08;1.02;;;12.80;29.70;;;;;;5005949;28;20053;-70
2021/04/27 09:38:12;;;;;;;2.83;1.23;;;13.00;29.50;;;;;;5009791;28;20058;-69
2021/04/27 09:40:47;;;;;;;4.65;1.30;;;13.20;29.10;;;;;;5008143;28;20246;-69
2021/04/27 09:43:16;;;;;;;5.05;1.30;;;13.40;28.80;;;;;;5008038;28;20058;-68
2021/04/27 09:45:45;;;;;;;4.72;1.33;;;13.30;28.20;;;;;;5010166;28;20326;-68
2021/04/27 09:48:36;;;;;;;3.30;1.50;;;13.40;28.80;;;;;;5009932;28;20446;-68
2021/04/27 09:51:25;;;;;;;6.35;1.58;;;13.70;28.80;;;;;;5006839;28;20058;-68
2021/04/27 09:53:54;;;;;;;2.78;1.35;;;14.10;28.60;;;;;;5010355;28;20069;-68
2021/04/27 09:56:36;;;;;;;3.67;1.73;;;14.10;27.30;;;;;;5005293;28;20118;-68
2021/04/27 09:59:06;;;;;;;3.88;1.27;;;14.30;27.20;;;;;;5017598;28;20337;-68
2021/04/27 10:01:34;;;;;;;3.58;1.38;;;14.90;27.10;;;;;;5008577;28;20245;-68
2021/04/27 10:04:01;;;;;;;2.92;1.30;;;15.50;25.80;;;;;;5017168;28;20077;-68
2021/04/27 10:06:30;;;;;;;4.38;1.70;;;16.10;25.40;;;;;;5016862;28;21029;-67
2021/04/27 10:08:57;;;;;;;3.83;1.60;;;16.90;25.20;;;;;;5011031;28;20046;-69
2021/04/27 10:11:27;;;;;;;2.92;1.52;;;17.90;23.40;;;;;;5015094;28;20070;-68
2021/04/27 10:13:55;;;;;;;3.30;1.58;;;17.80;22.40;;;;;;5017344;28;20057;-68
2021/04/27 10:16:23;;;;;;;6.65;1.65;;;18.10;22.20;;;;;;5020941;28;20121;-69
2021/04/27 10:18:52;;;;;;;2.70;1.27;;;19.40;22.20;;;;;;5021016;28;20041;-69
2021/04/27 10:21:19;;;;;;;3.57;1.60;;;21.00;21.00;;;;;;5019802;28;20041;-70
2021/04/27 10:23:51;;;;;;;4.00;1.75;;;21.80;19.40;;;;;;5020648;28;20062;-70
2021/04/27 10:26:21;;;;;;;4.60;1.45;;;22.10;18.80;;;;;;5019190;28;20077;-70
2021/04/27 10:29:07;;;;;;;3.25;1.40;;;22.40;18.70;;;;;;5015464;28;20054;-69
2021/04/27 10:31:37;;;;;;;3.55;1.50;;;21.60;17.90;;;;;;5023934;28;20130;-69
2021/04/27 10:34:08;;;;;;;4.32;1.55;;;21.60;18.60;;;;;;5018861;28;20050;-69
2021/04/27 10:36:39;;;;;;;3.95;1.88;;;21.70;18.10;;;;;;5021083;28;20053;-69
2021/04/27 10:39:12;;;;;;;;;;;21.20;17.80;;;;;;5018252;28;20057;-68
2021/04/27 10:41:45;;;;;;;3.67;1.35;;;21.70;17.60;;;;;;5018245;28;19917;-68
2021/04/27 10:44:13;;;;;;;6.30;1.98;;;22.90;16.70;;;;;;5016096;28;20341;-69
2021/04/27 10:46:56;;;;;;;3.13;1.73;;;22.90;15.90;;;;;;5014916;28;20104;-69
2021/04/27 10:49:31;;;;;;;6.07;1.80;;;23.80;15.10;;;;;;5002752;28;20050;-69
2021/04/27 10:51:59;;;;;;;5.15;2.42;;;22.20;15.80;;;;;;4990632;28;20057;-68
2021/04/27 10:54:31;;;;;;;3.72;1.45;;;22.50;16.50;;;;;;4994055;28;20061;-68
2021/04/27 10:57:16;;;;;;;3.97;1.30;;;23.40;15.60;;;;;;5000222;28;20388;-69
2021/04/27 10:59:52;;;;;;;3.13;1.60;;;24.00;15.10;;;;;;5000545;28;20169;-68
2021/04/27 11:02:23;;;;;;;2.55;1.42;;;23.20;14.70;;;;;;4988198;28;20058;-69
2021/04/27 11:04:51;;;;;;;2.85;1.50;;;24.80;14.10;;;;;;4995298;28;20088;-69
2021/04/27 11:07:48;;;;;;;4.60;2.28;;;25.00;14.30;;;;;;4992975;28;20137;-68
2021/04/27 11:10:25;;;;;;;4.68;1.90;;;25.30;13.60;;;;;;4935801;28;20335;-68
2021/04/27 11:12:57;;;;;;;5.68;1.67;;;25.10;13.40;;;;;;4983847;28;20085;-69
2021/04/27 11:15:27;;;;;;;3.65;1.70;;;24.90;13.90;;;;;;4988901;28;20054;-69
2021/04/27 11:18:02;;;;;;;4.07;1.95;;;24.40;14.20;;;;;;5001980;28;20299;-69
2021/04/27 11:20:50;;;;;;;5.47;1.85;;;26.20;13.60;;;;;;5014010;28;20077;-69
2021/04/27 11:23:46;;;;;;;5.28;1.67;;;28.10;11.90;;;;;;5015974;28;20073;-69
2021/04/27 11:26:47;;;;;;;4.70;1.80;;;26.80;12.90;;;;;;5002120;28;20359;-68
2021/04/27 11:29:23;;;;;;;3.05;1.52;;;27.00;13.00;;;;;;5004866;28;20060;-70
2021/04/27 11:32:04;;;;;;;5.60;1.70;;;27.70;13.00;;;;;;5014893;28;20124;-68
2021/04/27 11:34:46;;;;;;;3.67;1.70;;;28.90;11.90;;;;;;5015090;28;20041;-68
2021/04/27 11:37:17;;;;;;;4.32;1.90;;;27.40;12.50;;;;;;5011661;28;20045;-68
2021/04/27 11:39:44;;;;;;;3.75;1.42;;;29.40;11.70;;;;;;5013698;28;20058;-69
2021/04/27 11:42:11;;;;;;;4.35;1.77;;;30.40;10.60;;;;;;5011700;28;20056;-67
2021/04/27 11:44:40;;;;;;;5.63;2.10;;;30.10;11.20;;;;;;5014735;28;20053;-68
2021/04/27 11:47:14;;;;;;;4.75;1.95;;;29.80;10.80;;;;;;5016707;28;20041;-67
2021/04/27 11:49:57;;;;;;;2.90;1.70;;;30.90;10.50;;;;;;5015475;28;20064;-68
2021/04/27 11:52:39;;;;;;;2.60;1.60;;;30.50;10.50;;;;;;5013573;28;20088;-68
2021/04/27 11:55:11;;;;;;;5.90;1.65;;;30.50;10.60;;;;;;5014811;28;20077;-68
2021/04/27 11:57:43;;;;;;;4.25;2.00;;;29.00;11.50;;;;;;5018150;28;20331;-68
2021/04/27 12:00:13;;;;;;;2.15;1.25;;;29.40;11.90;;;;;;5005644;28;20050;-68
2021/04/27 12:02:40;;;;;;;2.67;1.58;;;29.80;11.50;;;;;;5009932;28;20057;-68
2021/04/27 12:05:08;;;;;;;3.15;1.73;;;29.10;11.30;;;;;;5018421;28;20069;-68
2021/04/27 12:07:35;;;;;;;3.60;1.70;;;29.90;11.20;;;;;;5009439;28;20108;-67
2021/04/27 12:10:04;;;;;;;2.50;1.33;;;30.00;11.50;;;;;;5011995;28;20073;-68
2021/04/27 12:12:31;;;;;;;4.72;1.90;;;28.90;11.30;;;;;;5019036;28;20050;-68
2021/04/27 12:15:00;;;;;;;4.68;1.73;;;28.30;12.10;;;;;;5016457;28;20368;-69
2021/04/27 12:17:31;;;;;;;3.25;1.33;;;30.20;11.10;;;;;;5010590;28;20057;-70
2021/04/27 12:20:11;;;;;;;6.70;2.55;;;29.40;11.40;;;;;;5015953;28;20053;-68
2021/04/27 12:22:42;;;;;;;;;;;30.20;11.20;;;;;;5012919;28;20042;-68
2021/04/27 12:25:20;;;;;;;4.57;1.70;;;31.80;10.20;;;;;;5011785;28;19933;-70
2021/04/27 12:27:48;;;;;;;4.82;1.80;;;32.60;9.50;;;;;;5011437;28;20061;-68
2021/04/27 12:30:18;;;;;;;3.50;1.55;;;32.00;10.00;;;;;;5011714;28;20085;-68
2021/04/27 12:32:56;;;;;;;3.83;1.88;;;29.80;10.90;;;;;;5015347;28;20062;-69
2021/04/27 12:35:24;;;;;;;3.10;1.40;;;28.80;11.90;;;;;;5020971;28;20273;-69
2021/04/27 12:38:01;;;;;;;4.07;1.45;;;27.90;12.00;;;;;;5016773;28;20069;-69
2021/04/27 12:40:33;;;;;;;4.43;1.40;;;28.10;11.70;;;;;;5016521;28;20056;-68
2021/04/27 12:43:03;;;;;;;2.75;1.63;;;28.80;11.20;;;;;;5015462;28;20042;-68
2021/04/27 12:45:42;;;;;;;4.75;1.55;;;29.30;11.20;;;;;;5013092;28;20043;-68
2021/04/27 12:48:10;;;;;;;3.28;1.65;;;31.70;10.00;;;;;;5014699;28;20125;-68
2021/04/27 12:50:49;;;;;;;2.63;1.60;;;31.30;10.00;;;;;;5013251;28;20042;-69
2021/04/27 12:53:17;;;;;;;3.75;1.90;;;29.80;11.10;;;;;;5016078;28;20046;-69
2021/04/27 12:55:53;;;;;;;3.58;1.70;;;31.20;10.60;;;;;;5016744;28;20278;-69
2021/04/27 12:58:23;;;;;;;3.83;1.92;;;30.60;10.60;;;;;;5013683;28;20504;-69
2021/04/27 13:00:57;;;;;;;3.17;1.45;;;32.60;9.70;;;;;;5009280;28;20057;-68
2021/04/27 13:03:27;;;;;;;4.95;1.70;;;34.10;9.20;;;;;;5015539;28;20069;-68
2021/04/27 13:05:55;;;;;;;4.90;1.77;;;34.00;8.70;;;;;;5013600;28;20176;-68
2021/04/27 13:08:26;;;;;;;3.80;1.70;;;34.50;8.90;;;;;;5014173;28;20041;-68
2021/04/27 13:10:59;;;;;;;4.45;1.52;;;34.00;9.00;;;;;;5012415;28;20293;-68
2021/04/27 13:13:27;;;;;;;4.32;2.10;;;32.30;9.60;;;;;;5013913;28;20044;-69
2021/04/27 13:15:58;;;;;;;2.85;1.38;;;33.10;9.60;;;;;;5015869;28;20052;-68
2021/04/27 13:18:28;;;;;;;5.05;1.63;;;31.50;9.50;;;;;;5014589;28;20049;-69